Bridgewater, Connecticut
Current Conditions -  °F | °C
As of 12:50 PM on Friday 31 Oct 2014 (Local Time) from KOXC Reporting Station
Overcast Overcast  
Wind Chill: 50°   Ceiling: 25000
Heat Index: 50°   Visibility: 10mi
Dew Point: 37°   Wind: 5mph
Humidity: 62%   Direction: 90°E
Pressure: 29.97"   Gusts: NA
Location:  41.53°N, 73.37°W
Report Text: KOXC 311650Z 09004KT 10SM SCT035 OVC250 10/03 A2997
Loading
Personal Weather Stations






























Interactive Weather Map
Tropical Storm Tracking
New forecast layout! Learn more

10-Day Weather Forecast

Advertisements
Track Severe Weather on mobile